sensor_id;sensor_type;location;lat;lon;timestamp;pressure;altitude;pressure_sealevel;temperature;humidity
73106;BME280;61559;50.476;15.588;2023-04-08T00:02:25;97615.89;;;4.14;85.79
73106;BME280;61559;50.476;15.588;2023-04-08T00:04:57;97610.60;;;4.13;85.93
73106;BME280;61559;50.476;15.588;2023-04-08T00:07:29;97613.52;;;4.10;85.83
73106;BME280;61559;50.476;15.588;2023-04-08T00:10:00;97612.20;;;4.07;86.00
73106;BME280;61559;50.476;15.588;2023-04-08T00:12:32;97611.08;;;4.06;86.16
73106;BME280;61559;50.476;15.588;2023-04-08T00:15:04;97615.21;;;4.06;86.25
73106;BME280;61559;50.476;15.588;2023-04-08T00:17:35;97614.64;;;4.09;86.13
73106;BME280;61559;50.476;15.588;2023-04-08T00:20:08;97616.68;;;4.11;86.13
73106;BME280;61559;50.476;15.588;2023-04-08T00:22:40;97621.09;;;4.13;86.10
73106;BME280;61559;50.476;15.588;2023-04-08T00:25:11;97622.02;;;4.14;86.05
73106;BME280;61559;50.476;15.588;2023-04-08T00:27:42;97621.30;;;4.16;85.98
73106;BME280;61559;50.476;15.588;2023-04-08T00:30:13;97621.79;;;4.19;85.96
73106;BME280;61559;50.476;15.588;2023-04-08T00:32:45;97626.58;;;4.20;85.94
73106;BME280;61559;50.476;15.588;2023-04-08T00:35:16;97627.90;;;4.22;85.98
73106;BME280;61559;50.476;15.588;2023-04-08T00:37:48;97629.52;;;4.24;86.04
73106;BME280;61559;50.476;15.588;2023-04-08T00:40:19;97635.38;;;4.24;85.88
73106;BME280;61559;50.476;15.588;2023-04-08T00:42:50;97639.82;;;4.25;85.89
73106;BME280;61559;50.476;15.588;2023-04-08T00:45:21;97636.95;;;4.25;85.80
73106;BME280;61559;50.476;15.588;2023-04-08T00:47:52;97638.84;;;4.26;85.85
73106;BME280;61559;50.476;15.588;2023-04-08T00:50:22;97634.25;;;4.27;85.96
73106;BME280;61559;50.476;15.588;2023-04-08T00:52:53;97637.00;;;4.26;85.94
73106;BME280;61559;50.476;15.588;2023-04-08T00:55:25;97636.96;;;4.25;85.95
73106;BME280;61559;50.476;15.588;2023-04-08T00:57:56;97636.95;;;4.24;85.80
73106;BME280;61559;50.476;15.588;2023-04-08T01:00:29;97640.03;;;4.22;85.84
73106;BME280;61559;50.476;15.588;2023-04-08T01:03:06;97644.32;;;4.21;85.88
73106;BME280;61559;50.476;15.588;2023-04-08T01:05:47;97644.89;;;4.19;85.82
73106;BME280;61559;50.476;15.588;2023-04-08T01:08:26;97645.86;;;4.18;85.92
73106;BME280;61559;50.476;15.588;2023-04-08T01:11:02;97646.62;;;4.18;85.98
73106;BME280;61559;50.476;15.588;2023-04-08T01:13:38;97647.13;;;4.18;85.97
73106;BME280;61559;50.476;15.588;2023-04-08T01:16:11;97650.34;;;4.18;85.95
73106;BME280;61559;50.476;15.588;2023-04-08T01:18:43;97646.91;;;4.20;86.02
73106;BME280;61559;50.476;15.588;2023-04-08T01:21:18;97649.36;;;4.20;86.07
73106;BME280;61559;50.476;15.588;2023-04-08T01:23:56;97651.92;;;4.20;85.96
73106;BME280;61559;50.476;15.588;2023-04-08T01:26:29;97648.86;;;4.20;86.01
73106;BME280;61559;50.476;15.588;2023-04-08T01:29:02;97647.54;;;4.19;86.09
73106;BME280;61559;50.476;15.588;2023-04-08T01:31:36;97645.85;;;4.19;86.13
73106;BME280;61559;50.476;15.588;2023-04-08T01:34:10;97647.89;;;4.19;86.13
73106;BME280;61559;50.476;15.588;2023-04-08T01:36:44;97645.75;;;4.18;86.20
73106;BME280;61559;50.476;15.588;2023-04-08T01:39:16;97648.80;;;4.19;86.30
73106;BME280;61559;50.476;15.588;2023-04-08T01:41:51;97647.33;;;4.20;86.23
73106;BME280;61559;50.476;15.588;2023-04-08T01:44:24;97651.30;;;4.21;86.30
73106;BME280;61559;50.476;15.588;2023-04-08T01:46:56;97648.13;;;4.22;86.36
73106;BME280;61559;50.476;15.588;2023-04-08T01:49:28;97650.38;;;4.24;86.27
73106;BME280;61559;50.476;15.588;2023-04-08T01:52:01;97650.42;;;4.24;86.16
73106;BME280;61559;50.476;15.588;2023-04-08T01:54:32;97647.51;;;4.25;86.35
73106;BME280;61559;50.476;15.588;2023-04-08T01:57:05;97649.60;;;4.26;86.28
73106;BME280;61559;50.476;15.588;2023-04-08T01:59:39;97650.73;;;4.25;86.21
73106;BME280;61559;50.476;15.588;2023-04-08T02:02:12;97650.17;;;4.22;86.39
73106;BME280;61559;50.476;15.588;2023-04-08T02:04:45;97650.64;;;4.21;86.41
73106;BME280;61559;50.476;15.588;2023-04-08T02:07:17;97650.64;;;4.21;86.34
73106;BME280;61559;50.476;15.588;2023-04-08T02:09:48;97650.94;;;4.21;86.38
73106;BME280;61559;50.476;15.588;2023-04-08T02:12:19;97650.60;;;4.19;86.39
73106;BME280;61559;50.476;15.588;2023-04-08T02:14:49;97657.11;;;4.19;86.40
73106;BME280;61559;50.476;15.588;2023-04-08T02:17:25;97652.95;;;4.15;86.39
73106;BME280;61559;50.476;15.588;2023-04-08T02:20:05;97654.44;;;4.13;86.51
73106;BME280;61559;50.476;15.588;2023-04-08T02:22:42;97656.93;;;4.13;86.50
73106;BME280;61559;50.476;15.588;2023-04-08T02:25:16;97655.63;;;4.10;86.49
73106;BME280;61559;50.476;15.588;2023-04-08T02:27:50;97658.88;;;4.08;86.60
73106;BME280;61559;50.476;15.588;2023-04-08T02:30:26;97661.34;;;4.06;86.58
73106;BME280;61559;50.476;15.588;2023-04-08T02:32:58;97662.20;;;4.05;86.71
73106;BME280;61559;50.476;15.588;2023-04-08T02:35:32;97661.23;;;4.05;86.72
73106;BME280;61559;50.476;15.588;2023-04-08T02:38:03;97665.27;;;4.06;86.79
73106;BME280;61559;50.476;15.588;2023-04-08T02:40:34;97663.73;;;4.08;86.84
73106;BME280;61559;50.476;15.588;2023-04-08T02:43:05;97660.98;;;4.10;86.85
73106;BME280;61559;50.476;15.588;2023-04-08T02:45:39;97661.12;;;4.12;86.83
73106;BME280;61559;50.476;15.588;2023-04-08T02:48:11;97666.73;;;4.14;86.73
73106;BME280;61559;50.476;15.588;2023-04-08T02:50:41;97662.43;;;4.15;86.75
73106;BME280;61559;50.476;15.588;2023-04-08T02:53:12;97662.14;;;4.14;86.82
73106;BME280;61559;50.476;15.588;2023-04-08T02:55:43;97660.95;;;4.16;86.77
73106;BME280;61559;50.476;15.588;2023-04-08T02:58:15;97661.81;;;4.17;86.75
73106;BME280;61559;50.476;15.588;2023-04-08T03:00:44;97666.09;;;4.19;86.85
73106;BME280;61559;50.476;15.588;2023-04-08T03:03:16;97669.20;;;4.19;86.80
73106;BME280;61559;50.476;15.588;2023-04-08T03:05:47;97668.90;;;4.18;86.73
73106;BME280;61559;50.476;15.588;2023-04-08T03:08:18;97669.20;;;4.17;86.73
73106;BME280;61559;50.476;15.588;2023-04-08T03:10:49;97672.42;;;4.18;86.68
73106;BME280;61559;50.476;15.588;2023-04-08T03:13:21;97673.08;;;4.18;86.79
73106;BME280;61559;50.476;15.588;2023-04-08T03:15:52;97671.95;;;4.18;86.68
73106;BME280;61559;50.476;15.588;2023-04-08T03:18:23;97669.15;;;4.19;86.64
73106;BME280;61559;50.476;15.588;2023-04-08T03:20:54;97671.19;;;4.19;86.71
73106;BME280;61559;50.476;15.588;2023-04-08T03:23:25;97674.40;;;4.21;86.66
73106;BME280;61559;50.476;15.588;2023-04-08T03:25:56;97673.06;;;4.22;86.64
73106;BME280;61559;50.476;15.588;2023-04-08T03:28:25;97677.34;;;4.22;86.55
73106;BME280;61559;50.476;15.588;2023-04-08T03:30:56;97683.06;;;4.21;86.58
73106;BME280;61559;50.476;15.588;2023-04-08T03:33:29;97680.72;;;4.21;86.50
73106;BME280;61559;50.476;15.588;2023-04-08T03:36:01;97683.73;;;4.21;86.59
73106;BME280;61559;50.476;15.588;2023-04-08T03:38:32;97683.82;;;4.22;86.66
73106;BME280;61559;50.476;15.588;2023-04-08T03:41:03;97684.23;;;4.23;86.57
73106;BME280;61559;50.476;15.588;2023-04-08T03:43:32;97692.48;;;4.23;86.46
73106;BME280;61559;50.476;15.588;2023-04-08T03:46:06;97695.96;;;4.20;86.44
73106;BME280;61559;50.476;15.588;2023-04-08T03:48:38;97697.70;;;4.19;86.55
73106;BME280;61559;50.476;15.588;2023-04-08T03:51:09;97695.45;;;4.18;86.45
73106;BME280;61559;50.476;15.588;2023-04-08T03:53:39;97698.21;;;4.18;86.51
73106;BME280;61559;50.476;15.588;2023-04-08T03:56:11;97699.69;;;4.17;86.63
73106;BME280;61559;50.476;15.588;2023-04-08T03:58:42;97701.98;;;4.20;86.64
73106;BME280;61559;50.476;15.588;2023-04-08T04:01:12;97705.86;;;4.20;86.64
73106;BME280;61559;50.476;15.588;2023-04-08T04:03:43;97709.64;;;4.18;86.74
73106;BME280;61559;50.476;15.588;2023-04-08T04:06:14;97710.04;;;4.18;86.85
73106;BME280;61559;50.476;15.588;2023-04-08T04:08:45;97715.18;;;4.20;86.78
73106;BME280;61559;50.476;15.588;2023-04-08T04:11:17;97718.80;;;4.20;86.68
73106;BME280;61559;50.476;15.588;2023-04-08T04:13:47;97718.09;;;4.19;86.71
73106;BME280;61559;50.476;15.588;2023-04-08T04:16:19;97722.98;;;4.19;86.78
73106;BME280;61559;50.476;15.588;2023-04-08T04:18:50;97722.22;;;4.17;86.69
73106;BME280;61559;50.476;15.588;2023-04-08T04:21:22;97724.83;;;4.14;86.28
73106;BME280;61559;50.476;15.588;2023-04-08T04:23:53;97725.50;;;4.13;86.35
73106;BME280;61559;50.476;15.588;2023-04-08T04:26:24;97729.06;;;4.14;86.24
73106;BME280;61559;50.476;15.588;2023-04-08T04:28:56;97730.54;;;4.16;86.45
73106;BME280;61559;50.476;15.588;2023-04-08T04:31:27;97732.98;;;4.18;86.60
73106;BME280;61559;50.476;15.588;2023-04-08T04:33:56;97733.34;;;4.18;86.56
73106;BME280;61559;50.476;15.588;2023-04-08T04:36:28;97736.80;;;4.18;86.58
73106;BME280;61559;50.476;15.588;2023-04-08T04:39:00;97738.29;;;4.17;86.58
73106;BME280;61559;50.476;15.588;2023-04-08T04:41:31;97739.14;;;4.17;86.54
73106;BME280;61559;50.476;15.588;2023-04-08T04:44:04;97738.95;;;4.17;86.63
73106;BME280;61559;50.476;15.588;2023-04-08T04:46:33;97737.17;;;4.16;86.37
73106;BME280;61559;50.476;15.588;2023-04-08T04:49:04;97735.34;;;4.12;86.27
73106;BME280;61559;50.476;15.588;2023-04-08T04:51:36;97738.30;;;4.13;86.28
73106;BME280;61559;50.476;15.588;2023-04-08T04:54:07;97743.23;;;4.15;86.34
73106;BME280;61559;50.476;15.588;2023-04-08T04:56:36;97747.52;;;4.17;86.13
73106;BME280;61559;50.476;15.588;2023-04-08T04:59:07;97746.65;;;4.15;86.06
73106;BME280;61559;50.476;15.588;2023-04-08T05:01:37;97750.63;;;4.17;85.98
73106;BME280;61559;50.476;15.588;2023-04-08T05:04:10;97755.87;;;4.18;86.00
73106;BME280;61559;50.476;15.588;2023-04-08T05:06:41;97752.91;;;4.19;85.79
73106;BME280;61559;50.476;15.588;2023-04-08T05:09:12;97758.36;;;4.20;85.76
73106;BME280;61559;50.476;15.588;2023-04-08T05:11:42;97761.22;;;4.21;85.76
73106;BME280;61559;50.476;15.588;2023-04-08T05:14:13;97762.80;;;4.21;85.69
73106;BME280;61559;50.476;15.588;2023-04-08T05:16:44;97762.48;;;4.21;85.71
73106;BME280;61559;50.476;15.588;2023-04-08T05:19:15;97766.26;;;4.22;85.71
73106;BME280;61559;50.476;15.588;2023-04-08T05:21:46;97770.33;;;4.25;85.60
73106;BME280;61559;50.476;15.588;2023-04-08T05:24:17;97770.98;;;4.27;85.43
73106;BME280;61559;50.476;15.588;2023-04-08T05:26:49;97773.39;;;4.26;85.27
73106;BME280;61559;50.476;15.588;2023-04-08T05:29:21;97776.29;;;4.29;85.43
73106;BME280;61559;50.476;15.588;2023-04-08T05:31:53;97779.20;;;4.31;85.19
73106;BME280;61559;50.476;15.588;2023-04-08T05:34:25;97781.02;;;4.33;84.96
73106;BME280;61559;50.476;15.588;2023-04-08T05:36:56;97781.86;;;4.35;85.08
73106;BME280;61559;50.476;15.588;2023-04-08T05:39:27;97782.52;;;4.36;85.14
73106;BME280;61559;50.476;15.588;2023-04-08T05:41:58;97783.54;;;4.38;85.02
73106;BME280;61559;50.476;15.588;2023-04-08T05:44:28;97784.20;;;4.40;84.92
73106;BME280;61559;50.476;15.588;2023-04-08T05:46:59;97786.70;;;4.39;85.08
73106;BME280;61559;50.476;15.588;2023-04-08T05:49:32;97788.38;;;4.42;85.17
73106;BME280;61559;50.476;15.588;2023-04-08T05:52:03;97796.98;;;4.47;85.14
73106;BME280;61559;50.476;15.588;2023-04-08T05:54:34;97800.96;;;4.47;84.98
73106;BME280;61559;50.476;15.588;2023-04-08T05:57:05;97803.77;;;4.47;84.65
73106;BME280;61559;50.476;15.588;2023-04-08T05:59:39;97802.85;;;4.48;84.79
73106;BME280;61559;50.476;15.588;2023-04-08T06:02:08;97807.38;;;4.50;84.56
73106;BME280;61559;50.476;15.588;2023-04-08T06:04:39;97809.73;;;4.49;84.58
73106;BME280;61559;50.476;15.588;2023-04-08T06:07:10;97813.76;;;4.52;84.56
73106;BME280;61559;50.476;15.588;2023-04-08T06:09:40;97815.02;;;4.54;84.53
73106;BME280;61559;50.476;15.588;2023-04-08T06:12:13;97817.52;;;4.54;84.17
73106;BME280;61559;50.476;15.588;2023-04-08T06:14:43;97816.55;;;4.55;84.06
73106;BME280;61559;50.476;15.588;2023-04-08T06:17:14;97820.84;;;4.53;83.80
73106;BME280;61559;50.476;15.588;2023-04-08T06:19:44;97819.20;;;4.54;83.84
73106;BME280;61559;50.476;15.588;2023-04-08T06:22:15;97825.63;;;4.55;84.14
73106;BME280;61559;50.476;15.588;2023-04-08T06:24:47;97830.27;;;4.58;83.89
73106;BME280;61559;50.476;15.588;2023-04-08T06:27:18;97830.05;;;4.61;83.64
73106;BME280;61559;50.476;15.588;2023-04-08T06:29:49;97829.75;;;4.64;83.57
73106;BME280;61559;50.476;15.588;2023-04-08T06:32:20;97836.77;;;4.67;83.58
73106;BME280;61559;50.476;15.588;2023-04-08T06:34:51;97835.55;;;4.66;83.22
73106;BME280;61559;50.476;15.588;2023-04-08T06:37:21;97836.31;;;4.69;83.48
73106;BME280;61559;50.476;15.588;2023-04-08T06:39:53;97836.21;;;4.70;83.45
73106;BME280;61559;50.476;15.588;2023-04-08T06:42:24;97836.81;;;4.73;83.32
73106;BME280;61559;50.476;15.588;2023-04-08T06:44:55;97843.13;;;4.77;83.40
73106;BME280;61559;50.476;15.588;2023-04-08T06:47:27;97848.63;;;4.86;83.52
73106;BME280;61559;50.476;15.588;2023-04-08T06:49:58;97849.46;;;4.94;83.48
73106;BME280;61559;50.476;15.588;2023-04-08T06:52:29;97851.38;;;5.02;83.57
73106;BME280;61559;50.476;15.588;2023-04-08T06:55:00;97853.80;;;5.08;83.23
73106;BME280;61559;50.476;15.588;2023-04-08T06:57:31;97859.91;;;5.12;82.77
73106;BME280;61559;50.476;15.588;2023-04-08T07:00:03;97862.11;;;5.11;82.03
73106;BME280;61559;50.476;15.588;2023-04-08T07:02:34;97867.27;;;5.11;82.04
73106;BME280;61559;50.476;15.588;2023-04-08T07:05:07;97867.17;;;5.10;82.09
73106;BME280;61559;50.476;15.588;2023-04-08T07:07:38;97868.76;;;5.09;82.02
73106;BME280;61559;50.476;15.588;2023-04-08T07:10:08;97870.17;;;5.11;82.12
73106;BME280;61559;50.476;15.588;2023-04-08T07:12:39;97874.32;;;5.10;82.17
73106;BME280;61559;50.476;15.588;2023-04-08T07:15:11;97876.66;;;5.12;82.02
73106;BME280;61559;50.476;15.588;2023-04-08T07:17:42;97882.42;;;5.14;82.06
73106;BME280;61559;50.476;15.588;2023-04-08T07:20:14;97888.19;;;5.15;81.76
73106;BME280;61559;50.476;15.588;2023-04-08T07:22:45;97892.27;;;5.15;81.51
73106;BME280;61559;50.476;15.588;2023-04-08T07:25:15;97889.98;;;5.13;81.34
73106;BME280;61559;50.476;15.588;2023-04-08T07:27:46;97890.88;;;5.06;81.56
73106;BME280;61559;50.476;15.588;2023-04-08T07:30:18;97891.65;;;5.05;81.67
73106;BME280;61559;50.476;15.588;2023-04-08T07:32:49;97896.23;;;5.05;81.74
73106;BME280;61559;50.476;15.588;2023-04-08T07:35:21;97905.89;;;5.04;81.51
73106;BME280;61559;50.476;15.588;2023-04-08T07:37:54;97903.50;;;5.02;81.03
73106;BME280;61559;50.476;15.588;2023-04-08T07:40:26;97910.14;;;4.98;81.04
73106;BME280;61559;50.476;15.588;2023-04-08T07:42:56;97917.09;;;4.95;81.25
73106;BME280;61559;50.476;15.588;2023-04-08T07:45:26;97916.69;;;4.93;81.53
73106;BME280;61559;50.476;15.588;2023-04-08T07:47:57;97915.20;;;4.95;81.69
73106;BME280;61559;50.476;15.588;2023-04-08T07:50:30;97918.71;;;5.01;81.56
73106;BME280;61559;50.476;15.588;2023-04-08T07:53:00;97918.09;;;5.06;81.39
73106;BME280;61559;50.476;15.588;2023-04-08T07:55:34;97923.19;;;5.08;81.38
73106;BME280;61559;50.476;15.588;2023-04-08T07:58:06;97927.58;;;5.14;81.42
73106;BME280;61559;50.476;15.588;2023-04-08T08:00:37;97932.36;;;5.16;81.34
73106;BME280;61559;50.476;15.588;2023-04-08T08:03:09;97934.15;;;5.15;80.93
73106;BME280;61559;50.476;15.588;2023-04-08T08:05:39;97938.19;;;5.12;80.59
73106;BME280;61559;50.476;15.588;2023-04-08T08:08:10;97942.84;;;5.09;80.85
73106;BME280;61559;50.476;15.588;2023-04-08T08:10:41;97949.63;;;5.09;81.02
73106;BME280;61559;50.476;15.588;2023-04-08T08:13:10;97953.88;;;5.06;80.67
73106;BME280;61559;50.476;15.588;2023-04-08T08:15:45;97957.15;;;5.03;80.81
73106;BME280;61559;50.476;15.588;2023-04-08T08:18:15;97958.34;;;4.97;80.34
73106;BME280;61559;50.476;15.588;2023-04-08T08:20:46;97965.23;;;4.93;80.37
73106;BME280;61559;50.476;15.588;2023-04-08T08:23:17;97963.55;;;4.91;80.37
73106;BME280;61559;50.476;15.588;2023-04-08T08:25:48;97961.27;;;4.90;80.01
73106;BME280;61559;50.476;15.588;2023-04-08T08:28:19;97964.92;;;4.93;79.95
73106;BME280;61559;50.476;15.588;2023-04-08T08:30:50;97967.16;;;4.99;79.48
73106;BME280;61559;50.476;15.588;2023-04-08T08:33:21;97966.19;;;5.05;79.82
73106;BME280;61559;50.476;15.588;2023-04-08T08:35:52;97969.42;;;5.15;79.49
73106;BME280;61559;50.476;15.588;2023-04-08T08:38:24;97972.06;;;5.19;78.79
73106;BME280;61559;50.476;15.588;2023-04-08T08:40:56;97974.54;;;5.27;79.12
73106;BME280;61559;50.476;15.588;2023-04-08T08:43:28;97974.36;;;5.36;79.24
73106;BME280;61559;50.476;15.588;2023-04-08T08:46:02;97975.77;;;5.46;78.61
73106;BME280;61559;50.476;15.588;2023-04-08T08:48:33;97975.05;;;5.45;76.98
73106;BME280;61559;50.476;15.588;2023-04-08T08:51:10;97976.58;;;5.45;76.95
73106;BME280;61559;50.476;15.588;2023-04-08T08:53:41;97977.40;;;5.43;77.16
73106;BME280;61559;50.476;15.588;2023-04-08T08:56:14;97985.88;;;5.41;77.48
73106;BME280;61559;50.476;15.588;2023-04-08T08:58:47;97980.81;;;5.46;77.99
73106;BME280;61559;50.476;15.588;2023-04-08T09:01:35;97981.75;;;5.55;78.03
73106;BME280;61559;50.476;15.588;2023-04-08T09:04:10;97989.50;;;5.61;77.04
73106;BME280;61559;50.476;15.588;2023-04-08T09:06:42;97988.73;;;5.65;77.30
73106;BME280;61559;50.476;15.588;2023-04-08T09:09:13;97998.52;;;5.70;76.80
73106;BME280;61559;50.476;15.588;2023-04-08T09:11:45;98007.18;;;5.75;77.14
73106;BME280;61559;50.476;15.588;2023-04-08T09:14:22;98006.51;;;5.78;76.37
73106;BME280;61559;50.476;15.588;2023-04-08T09:16:54;98013.06;;;5.73;75.66
73106;BME280;61559;50.476;15.588;2023-04-08T09:19:23;98017.38;;;5.67;75.99
73106;BME280;61559;50.476;15.588;2023-04-08T09:22:19;98024.81;;;5.59;76.19
73106;BME280;61559;50.476;15.588;2023-04-08T09:25:23;98027.48;;;5.50;75.85
73106;BME280;61559;50.476;15.588;2023-04-08T09:27:55;98031.24;;;5.43;76.39
73106;BME280;61559;50.476;15.588;2023-04-08T09:30:27;98035.45;;;5.36;76.55
73106;BME280;61559;50.476;15.588;2023-04-08T09:32:58;98034.28;;;5.31;76.93
73106;BME280;61559;50.476;15.588;2023-04-08T09:35:30;98040.36;;;5.32;77.54
73106;BME280;61559;50.476;15.588;2023-04-08T09:38:01;98036.16;;;5.31;77.27
73106;BME280;61559;50.476;15.588;2023-04-08T09:40:30;98040.56;;;5.38;77.51
73106;BME280;61559;50.476;15.588;2023-04-08T09:43:05;98050.14;;;5.44;77.68
73106;BME280;61559;50.476;15.588;2023-04-08T09:45:39;98043.89;;;5.55;78.19
73106;BME280;61559;50.476;15.588;2023-04-08T09:48:18;98048.85;;;5.68;77.53
73106;BME280;61559;50.476;15.588;2023-04-08T09:50:52;98055.61;;;5.82;76.95
73106;BME280;61559;50.476;15.588;2023-04-08T09:53:32;98057.60;;;5.89;76.08
73106;BME280;61559;50.476;15.588;2023-04-08T09:56:09;98056.17;;;5.87;75.51
73106;BME280;61559;50.476;15.588;2023-04-08T09:58:40;98054.73;;;5.92;76.11
73106;BME280;61559;50.476;15.588;2023-04-08T10:01:14;98059.95;;;5.95;76.34
73106;BME280;61559;50.476;15.588;2023-04-08T10:03:51;98057.48;;;5.96;75.87
73106;BME280;61559;50.476;15.588;2023-04-08T10:06:25;98064.48;;;5.97;75.33
73106;BME280;61559;50.476;15.588;2023-04-08T10:08:58;98066.22;;;5.99;75.59
73106;BME280;61559;50.476;15.588;2023-04-08T10:11:31;98066.80;;;6.05;74.84
73106;BME280;61559;50.476;15.588;2023-04-08T10:14:03;98069.41;;;6.12;74.51
73106;BME280;61559;50.476;15.588;2023-04-08T10:16:34;98069.38;;;6.18;73.87
73106;BME280;61559;50.476;15.588;2023-04-08T10:19:38;98069.70;;;6.24;74.27
73106;BME280;61559;50.476;15.588;2023-04-08T10:25:31;98072.26;;;6.38;73.70
73106;BME280;61559;50.476;15.588;2023-04-08T10:28:25;98080.25;;;6.35;72.27
73106;BME280;61559;50.476;15.588;2023-04-08T10:30:57;98087.73;;;6.30;72.61
73106;BME280;61559;50.476;15.588;2023-04-08T10:33:33;98094.25;;;6.26;72.87
73106;BME280;61559;50.476;15.588;2023-04-08T10:36:16;98101.23;;;6.23;72.85
73106;BME280;61559;50.476;15.588;2023-04-08T10:38:46;98098.99;;;6.16;72.90
73106;BME280;61559;50.476;15.588;2023-04-08T10:41:24;98104.27;;;6.15;72.85
73106;BME280;61559;50.476;15.588;2023-04-08T10:43:55;98102.84;;;6.14;72.41
73106;BME280;61559;50.476;15.588;2023-04-08T10:46:29;98102.90;;;6.11;71.90
73106;BME280;61559;50.476;15.588;2023-04-08T10:49:07;98096.39;;;6.07;72.24
73106;BME280;61559;50.476;15.588;2023-04-08T10:51:38;98094.58;;;6.09;72.43
73106;BME280;61559;50.476;15.588;2023-04-08T10:54:11;98094.91;;;6.14;72.32
73106;BME280;61559;50.476;15.588;2023-04-08T10:56:46;98089.99;;;6.17;71.57
73106;BME280;61559;50.476;15.588;2023-04-08T10:59:27;98091.66;;;6.22;71.77
73106;BME280;61559;50.476;15.588;2023-04-08T11:01:59;98095.11;;;6.29;71.77
73106;BME280;61559;50.476;15.588;2023-04-08T11:04:31;98094.20;;;6.38;71.48
73106;BME280;61559;50.476;15.588;2023-04-08T11:07:05;98093.45;;;6.44;70.35
73106;BME280;61559;50.476;15.588;2023-04-08T11:09:37;98092.62;;;6.46;69.87
73106;BME280;61559;50.476;15.588;2023-04-08T11:12:10;98090.75;;;6.52;70.79
73106;BME280;61559;50.476;15.588;2023-04-08T11:14:45;98096.05;;;6.63;70.34
73106;BME280;61559;50.476;15.588;2023-04-08T11:17:19;98094.88;;;6.72;70.97
73106;BME280;61559;50.476;15.588;2023-04-08T11:19:50;98094.48;;;6.86;71.25
73106;BME280;61559;50.476;15.588;2023-04-08T11:22:23;98094.77;;;6.99;70.58
73106;BME280;61559;50.476;15.588;2023-04-08T11:24:54;98095.02;;;7.00;69.25
73106;BME280;61559;50.476;15.588;2023-04-08T11:27:26;98096.59;;;6.96;68.43
73106;BME280;61559;50.476;15.588;2023-04-08T11:29:57;98095.54;;;6.88;68.40
73106;BME280;61559;50.476;15.588;2023-04-08T11:32:29;98091.98;;;6.83;69.13
73106;BME280;61559;50.476;15.588;2023-04-08T11:35:03;98098.55;;;6.83;68.25
73106;BME280;61559;50.476;15.588;2023-04-08T11:37:41;98100.71;;;6.80;67.75
73106;BME280;61559;50.476;15.588;2023-04-08T11:40:18;98102.26;;;6.79;67.95
73106;BME280;61559;50.476;15.588;2023-04-08T11:42:50;98106.14;;;6.72;67.21
73106;BME280;61559;50.476;15.588;2023-04-08T11:45:22;98100.70;;;6.65;67.31
73106;BME280;61559;50.476;15.588;2023-04-08T11:47:53;98105.33;;;6.71;68.60
73106;BME280;61559;50.476;15.588;2023-04-08T11:50:23;98104.51;;;6.79;68.30
73106;BME280;61559;50.476;15.588;2023-04-08T11:52:54;98104.96;;;6.80;67.50
73106;BME280;61559;50.476;15.588;2023-04-08T11:55:26;98103.35;;;6.90;69.13
73106;BME280;61559;50.476;15.588;2023-04-08T11:58:03;98108.75;;;7.13;69.14
73106;BME280;61559;50.476;15.588;2023-04-08T12:00:34;98104.20;;;7.31;66.96
73106;BME280;61559;50.476;15.588;2023-04-08T12:03:06;98101.08;;;7.42;66.64
73106;BME280;61559;50.476;15.588;2023-04-08T12:05:37;98105.51;;;7.50;66.19
73106;BME280;61559;50.476;15.588;2023-04-08T12:08:07;98105.30;;;7.45;65.43
73106;BME280;61559;50.476;15.588;2023-04-08T12:10:38;98102.69;;;7.45;66.18
73106;BME280;61559;50.476;15.588;2023-04-08T12:13:09;98100.49;;;7.50;66.11
73106;BME280;61559;50.476;15.588;2023-04-08T12:15:40;98101.13;;;7.53;66.42
73106;BME280;61559;50.476;15.588;2023-04-08T12:18:11;98109.77;;;7.49;66.65
73106;BME280;61559;50.476;15.588;2023-04-08T12:20:42;98108.56;;;7.42;66.91
73106;BME280;61559;50.476;15.588;2023-04-08T12:23:13;98111.98;;;7.44;66.42
73106;BME280;61559;50.476;15.588;2023-04-08T12:25:45;98108.25;;;7.30;66.50
73106;BME280;61559;50.476;15.588;2023-04-08T12:28:14;98109.17;;;7.24;66.80
73106;BME280;61559;50.476;15.588;2023-04-08T12:30:44;98116.79;;;7.13;66.87
73106;BME280;61559;50.476;15.588;2023-04-08T12:33:15;98119.81;;;6.99;66.29
73106;BME280;61559;50.476;15.588;2023-04-08T12:35:45;98116.17;;;6.88;66.08
73106;BME280;61559;50.476;15.588;2023-04-08T12:38:16;98117.34;;;6.83;66.86
73106;BME280;61559;50.476;15.588;2023-04-08T12:40:47;98115.12;;;6.91;67.85
73106;BME280;61559;50.476;15.588;2023-04-08T12:43:18;98114.09;;;6.98;67.12
73106;BME280;61559;50.476;15.588;2023-04-08T12:45:51;98113.58;;;7.04;66.64
73106;BME280;61559;50.476;15.588;2023-04-08T12:48:21;98108.23;;;7.07;66.99
73106;BME280;61559;50.476;15.588;2023-04-08T12:50:52;98114.29;;;7.06;65.69
73106;BME280;61559;50.476;15.588;2023-04-08T12:53:23;98112.63;;;7.00;66.68
73106;BME280;61559;50.476;15.588;2023-04-08T12:55:54;98112.24;;;6.97;66.37
73106;BME280;61559;50.476;15.588;2023-04-08T12:58:26;98113.83;;;6.99;66.99
73106;BME280;61559;50.476;15.588;2023-04-08T13:00:57;98111.19;;;7.02;66.19
73106;BME280;61559;50.476;15.588;2023-04-08T13:03:27;98108.95;;;7.00;65.79
73106;BME280;61559;50.476;15.588;2023-04-08T13:06:00;98109.15;;;6.99;65.86
73106;BME280;61559;50.476;15.588;2023-04-08T13:08:31;98111.05;;;7.05;66.40
73106;BME280;61559;50.476;15.588;2023-04-08T13:11:02;98114.10;;;7.15;65.74
73106;BME280;61559;50.476;15.588;2023-04-08T13:13:34;98115.77;;;7.26;66.16
73106;BME280;61559;50.476;15.588;2023-04-08T13:16:03;98117.52;;;7.36;65.40
73106;BME280;61559;50.476;15.588;2023-04-08T13:18:35;98118.66;;;7.35;64.97
73106;BME280;61559;50.476;15.588;2023-04-08T13:21:06;98117.23;;;7.37;64.51
73106;BME280;61559;50.476;15.588;2023-04-08T13:23:38;98118.56;;;7.35;63.22
73106;BME280;61559;50.476;15.588;2023-04-08T13:26:07;98120.75;;;7.30;63.46
73106;BME280;61559;50.476;15.588;2023-04-08T13:28:38;98118.55;;;7.30;63.92
73106;BME280;61559;50.476;15.588;2023-04-08T13:31:25;98120.84;;;7.33;64.19